North Island Naval Air Station-Halsey Field
KNZY : now visible

Airfield :











YOU CAN JOIN US ON...

 
LOGIN :

Register | Disclaimer

   EN    FR    IT 

 









Legend :    VFR   Marginal VFR   IFR   Intensive IFR   Very Intensive IFR
Visi :
Ceiling :
>= 8 km
>= 3000ft
5 to 8 km
1000 to 3000 ft
1500m to 5 km
500 to 1000 ft
800 to 1500m
200 to 500 ft
< 800m
< 200 ft
Symbols :   Thunderstorms  Fog  Heavy snow  Heavy precipitations  Wind > 20 kt






- Airport Elevation : 26 ft


KNZY - North Island Naval Air Station-Halsey Field

CURRENT METAR :
  • 080552Z 35007KT 5SM +RA BR SCT015 BKN025 BKN040 13/10 A3004 RMK AO2 SLP173 P0007 60008 T01280100 10167 20128 51006

EXPIRED METARs :
  • 080452Z 33006KT 10SM -RA SCT015 SCT020 BKN040 13/11 A3004 RMK AO2 RAB08 SLP172 P0000 T01330106
  • 080352Z 30007KT 10SM FEW015 SCT020 BKN040 13/11 A3003 RMK AO2 RAB07E17 SLP170 P0000 T01330106

TAF TAF KNZY
Valid from the 07 at 23:00 until the 08 at 23:00 UTC


0723/0823 17020G30KT 9999 VCSH FEW010 SCT025 BKN035 OVC050 650609 651505 530006 531009 531909 532703 QNH2991INS
TEMPO 0723/0802 4800 -SHRA BR FEW005 BKN015 OVC030
BECMG 0802/0804 VRB06KT 9999 VCSH SCT010 BKN030 OVC050 650609 651505 530006 531009 531909 532709 533604 QNH2993INS
TEMPO 0807/0813 4800 -SHRA BR SCT005 BKN010 OVC025
FM081800 23011KT 9999 VCSH FEW015 SCT025 BKN040 BKN080 650609 651505 530006 531009 531909 532709 533604 QNH2996INS
TEMPO 0818/0823 24012G18KT 8000 -SHRA BR SCT008 BKN020 OVC030 T11/0812Z T17/0821Z FS30022



MET'MAP, your aeronautical weather chart ! - Copyright ORBIFLY December 2007 - Disclaimer

ORBIFLY MET'MAP TEAM :

Programming & Development : Alexandra Zaïnal
Concept & original design : Baudouin d'Aumeries
Assistance for programming : Marc-Olivier Méhu
Technical & hardware support : Manuel Goepfert

Contact : metmap@orbifly.com




SOURCES & CREDITS :

   NOAA       Earth
Advisory